Time;durP1;ratioP1;P1;durP2;ratioP2;P2;SDS_P1;SDS_P2;PMS_P1;PMS_P2;Temp;Humidity;BMP_temperature;BMP_pressure;BME280_temperature;BME280_humidity;BME280_pressure;Samples;Min_cycle;Max_cycle;Signal;HPM_P1;HPM_P2
2020/12/10 00:02:27;;;;;;;34.05;22.88;;;2.60;99.90;;;;;;5071157;28;20013;-71
2020/12/10 00:04:52;;;;;;;37.85;21.92;;;2.50;99.90;;;;;;5052935;28;20611;-71
2020/12/10 00:07:22;;;;;;;39.55;24.60;;;2.60;99.90;;;;;;5053058;28;20025;-71
2020/12/10 00:09:52;;;;;;;33.97;22.73;;;2.50;99.90;;;;;;5067924;22;20396;-78
2020/12/10 00:12:18;;;;;;;36.40;22.98;;;2.50;99.90;;;;;;5049746;28;20369;-77
2020/12/10 00:14:44;;;;;;;37.50;23.88;;;2.50;99.90;;;;;;5050718;28;20078;-76
2020/12/10 00:17:10;;;;;;;35.47;23.45;;;2.40;99.90;;;;;;5050802;28;20150;-76
2020/12/10 00:19:36;;;;;;;39.22;23.52;;;2.40;99.90;;;;;;5050708;28;20514;-76
2020/12/10 00:22:01;;;;;;;35.17;23.67;;;2.40;99.90;;;;;;5032921;28;20459;-76
2020/12/10 00:24:27;;;;;;;41.70;23.05;;;2.50;99.90;;;;;;5050543;28;20078;-77
2020/12/10 00:26:53;;;;;;;37.53;23.05;;;2.70;99.90;;;;;;5050818;28;20389;-76
2020/12/10 00:29:19;;;;;;;38.80;23.98;;;2.80;99.90;;;;;;5050541;28;20029;-76
2020/12/10 00:31:45;;;;;;;35.92;22.40;;;2.80;99.90;;;;;;5050878;28;20388;-76
2020/12/10 00:34:11;;;;;;;33.67;21.88;;;2.70;99.90;;;;;;5050661;28;20460;-76
2020/12/10 00:36:37;;;;;;;37.33;22.73;;;2.70;99.90;;;;;;5050436;28;20037;-76
2020/12/10 00:39:05;;;;;;;38.17;22.45;;;2.80;99.90;;;;;;5032996;28;20115;-76
2020/12/10 00:41:31;;;;;;;42.42;23.63;;;2.80;99.90;;;;;;5049864;28;20388;-76
2020/12/10 00:43:56;;;;;;;41.72;24.95;;;2.80;99.90;;;;;;5037068;28;20074;-76
2020/12/10 00:46:22;;;;;;;36.85;23.42;;;2.80;99.90;;;;;;5054588;28;20484;-76
2020/12/10 00:48:48;;;;;;;34.85;23.08;;;2.80;99.90;;;;;;5054736;28;20104;-77
2020/12/10 00:51:13;;;;;;;35.90;22.70;;;2.70;99.90;;;;;;5054458;28;20049;-76
2020/12/10 00:53:39;;;;;;;35.45;22.80;;;2.70;99.90;;;;;;5054669;28;20029;-76
2020/12/10 00:56:05;;;;;;;35.08;22.00;;;2.60;99.90;;;;;;5054325;28;20033;-76
2020/12/10 00:58:31;;;;;;;37.45;23.00;;;2.50;99.90;;;;;;5036652;28;20025;-76
2020/12/10 01:00:56;;;;;;;34.33;22.70;;;2.50;99.90;;;;;;5054337;28;20017;-76
2020/12/10 01:03:22;;;;;;;36.90;23.17;;;2.50;99.90;;;;;;5054385;28;20037;-76
2020/12/10 01:05:48;;;;;;;33.72;22.58;;;2.50;99.90;;;;;;5053897;28;20032;-76
2020/12/10 01:08:14;;;;;;;36.10;22.77;;;2.50;99.90;;;;;;5036486;28;20495;-77
2020/12/10 01:10:40;;;;;;;38.95;23.73;;;2.50;99.90;;;;;;5036128;28;20040;-77
2020/12/10 01:13:06;;;;;;;38.55;23.42;;;2.50;99.90;;;;;;5052942;28;20029;-77
2020/12/10 01:15:32;;;;;;;36.83;23.05;;;2.60;99.90;;;;;;5053821;28;20032;-77
2020/12/10 01:17:58;;;;;;;38.83;23.80;;;2.80;99.90;;;;;;5036169;28;20036;-77
2020/12/10 01:20:24;;;;;;;34.53;22.85;;;2.70;99.90;;;;;;5036159;28;20021;-77
2020/12/10 01:22:50;;;;;;;36.47;23.30;;;2.60;99.90;;;;;;5035944;28;20027;-76
2020/12/10 01:25:16;;;;;;;45.13;24.30;;;2.40;99.90;;;;;;5054048;28;20095;-76
2020/12/10 01:27:41;;;;;;;40.95;24.83;;;2.20;99.90;;;;;;5053636;28;20362;-76
2020/12/10 01:30:07;;;;;;;37.08;23.90;;;2.00;99.90;;;;;;5053883;28;20028;-76
2020/12/10 01:32:33;;;;;;;40.50;23.83;;;2.10;99.90;;;;;;5053654;28;20499;-76
2020/12/10 01:34:59;;;;;;;40.58;26.00;;;2.10;99.90;;;;;;5053865;28;20017;-76
2020/12/10 01:37:25;;;;;;;39.78;25.70;;;2.20;99.90;;;;;;5053358;28;20028;-76
2020/12/10 01:39:51;;;;;;;38.72;24.58;;;2.30;99.90;;;;;;5053750;28;20051;-76
2020/12/10 01:42:17;;;;;;;38.95;24.95;;;2.40;99.90;;;;;;5053396;28;20100;-76
2020/12/10 01:44:43;;;;;;;37.95;23.70;;;2.30;99.90;;;;;;5053367;28;20066;-76
2020/12/10 01:47:09;;;;;;;37.42;23.60;;;2.40;99.90;;;;;;5053471;28;20086;-76
2020/12/10 01:49:37;;;;;;;39.22;23.83;;;2.50;99.90;;;;;;5053609;28;20033;-76
2020/12/10 01:52:04;;;;;;;36.92;22.90;;;2.60;99.90;;;;;;5053287;28;20078;-76
2020/12/10 01:54:30;;;;;;;40.25;23.92;;;2.60;99.90;;;;;;5035338;28;20639;-77
2020/12/10 01:56:56;;;;;;;30.42;20.40;;;2.60;99.90;;;;;;5035305;28;20028;-76
2020/12/10 01:59:22;;;;;;;34.25;22.08;;;2.70;99.90;;;;;;5053390;28;20024;-76
2020/12/10 02:01:49;;;;;;;32.25;20.75;;;2.80;99.90;;;;;;5053390;28;20025;-76
2020/12/10 02:04:30;;;;;;;38.10;22.63;;;2.60;99.90;;;;;;5053149;28;20024;-76
2020/12/10 02:07:03;;;;;;;35.45;21.63;;;2.40;99.90;;;;;;5053566;28;20104;-76
2020/12/10 02:09:29;;;;;;;35.50;22.92;;;2.40;99.90;;;;;;5036004;28;20025;-76
2020/12/10 02:11:55;;;;;;;37.08;23.80;;;2.40;99.90;;;;;;5053575;28;20032;-76
2020/12/10 02:14:21;;;;;;;35.63;23.30;;;2.30;99.90;;;;;;5035212;28;20025;-76
2020/12/10 02:16:54;;;;;;;36.33;23.50;;;2.30;99.90;;;;;;5035349;28;20025;-76
2020/12/10 02:19:20;;;;;;;36.45;21.92;;;2.50;99.90;;;;;;5052937;28;20047;-76
2020/12/10 02:21:46;;;;;;;33.47;21.83;;;2.60;99.90;;;;;;5035250;28;20059;-76
2020/12/10 02:24:17;;;;;;;39.58;22.83;;;2.60;99.90;;;;;;5034813;28;20036;-76
2020/12/10 02:26:42;;;;;;;33.10;21.63;;;2.70;99.90;;;;;;5052814;28;20522;-76
2020/12/10 02:29:08;;;;;;;35.28;22.58;;;2.80;99.90;;;;;;5034752;28;20051;-76
2020/12/10 02:31:35;;;;;;;34.97;22.67;;;2.80;99.90;;;;;;5052898;28;20032;-76
2020/12/10 02:34:03;;;;;;;35.40;22.52;;;2.90;99.90;;;;;;5052511;28;20055;-76
2020/12/10 02:36:30;;;;;;;36.30;22.88;;;2.90;99.90;;;;;;5052266;28;20028;-76
2020/12/10 02:38:55;;;;;;;40.78;22.48;;;2.80;99.90;;;;;;5052328;28;20048;-76
2020/12/10 02:41:21;;;;;;;36.25;23.02;;;2.90;99.90;;;;;;5052482;28;20502;-76
2020/12/10 02:43:48;;;;;;;34.88;22.67;;;2.90;99.90;;;;;;5052323;28;20052;-76
2020/12/10 02:46:13;;;;;;;38.33;22.75;;;2.80;99.90;;;;;;5052348;28;20055;-77
2020/12/10 02:48:39;;;;;;;35.55;22.05;;;2.80;99.90;;;;;;5052691;28;20025;-76
2020/12/10 02:51:06;;;;;;;38.55;24.40;;;2.60;99.90;;;;;;5052307;28;20053;-76
2020/12/10 02:53:34;;;;;;;36.15;22.27;;;2.60;99.90;;;;;;5034288;28;20080;-76
2020/12/10 02:55:59;;;;;;;37.00;22.45;;;2.50;99.90;;;;;;5017655;28;20031;-76
2020/12/10 02:58:25;;;;;;;36.10;22.63;;;2.50;99.90;;;;;;5052206;28;20473;-76
2020/12/10 03:00:51;;;;;;;37.17;23.98;;;2.50;99.90;;;;;;5034081;28;20388;-76
2020/12/10 03:03:18;;;;;;;34.83;22.33;;;2.50;99.90;;;;;;5052163;28;20051;-76
2020/12/10 03:05:44;;;;;;;34.83;22.40;;;2.60;99.90;;;;;;5051075;28;20025;-76
2020/12/10 03:08:11;;;;;;;37.38;22.98;;;2.80;99.90;;;;;;5052103;28;20056;-76
2020/12/10 03:10:37;;;;;;;36.28;22.95;;;3.00;99.90;;;;;;5051602;28;20484;-76
2020/12/10 03:13:03;;;;;;;34.80;22.30;;;3.00;99.90;;;;;;5051926;28;20052;-76
2020/12/10 03:15:29;;;;;;;41.45;24.27;;;3.10;99.90;;;;;;5051397;28;20099;-76
2020/12/10 03:17:55;;;;;;;50.08;27.73;;;3.10;99.90;;;;;;5033929;28;20469;-76
2020/12/10 03:20:21;;;;;;;44.63;26.10;;;3.00;99.90;;;;;;5051596;28;20100;-76
2020/12/10 03:22:46;;;;;;;37.70;22.52;;;3.20;99.90;;;;;;5051761;28;20064;-76
2020/12/10 03:25:12;;;;;;;40.35;24.80;;;3.30;99.90;;;;;;5051387;28;20024;-76
2020/12/10 03:27:38;;;;;;;37.17;22.75;;;3.40;99.90;;;;;;5051986;28;20028;-76
2020/12/10 03:30:05;;;;;;;38.38;23.15;;;3.40;99.90;;;;;;5052020;28;20033;-76
2020/12/10 03:32:30;;;;;;;38.60;23.27;;;3.50;99.90;;;;;;5017177;28;20032;-76
2020/12/10 03:34:56;;;;;;;36.40;23.73;;;3.50;99.90;;;;;;5051195;28;20028;-76
2020/12/10 03:37:22;;;;;;;35.42;22.60;;;3.60;99.90;;;;;;5051231;28;20396;-76
2020/12/10 03:39:48;;;;;;;38.70;23.42;;;3.50;99.90;;;;;;5051250;28;20409;-76
2020/12/10 03:42:13;;;;;;;38.38;23.50;;;3.50;99.90;;;;;;5051440;28;20025;-76
2020/12/10 03:44:40;;;;;;;37.20;23.55;;;3.40;99.90;;;;;;5051234;28;20028;-76
2020/12/10 03:47:05;;;;;;;31.25;21.20;;;3.40;99.90;;;;;;5033360;28;20116;-76
2020/12/10 03:49:31;;;;;;;34.83;22.35;;;3.50;99.90;;;;;;5051768;28;20096;-76
2020/12/10 03:51:57;;;;;;;35.92;21.67;;;3.50;99.90;;;;;;5033875;28;20025;-76
2020/12/10 03:54:23;;;;;;;33.05;21.45;;;3.40;99.90;;;;;;5051724;28;20025;-76
2020/12/10 03:56:48;;;;;;;30.65;20.48;;;3.40;99.90;;;;;;5051456;28;20398;-76
2020/12/10 03:59:14;;;;;;;34.03;20.50;;;3.50;99.90;;;;;;5051304;28;20025;-76
2020/12/10 04:01:40;;;;;;;33.65;20.65;;;3.60;99.90;;;;;;5050990;28;20025;-76
2020/12/10 04:04:05;;;;;;;34.63;22.13;;;3.40;99.90;;;;;;5051040;28;20043;-77
2020/12/10 04:06:31;;;;;;;34.45;21.20;;;3.40;99.90;;;;;;5051017;28;20017;-76
2020/12/10 04:08:58;;;;;;;36.03;21.75;;;3.30;99.90;;;;;;5033183;28;20025;-76
2020/12/10 04:11:23;;;;;;;33.95;20.77;;;3.30;99.90;;;;;;5050778;28;20439;-76
2020/12/10 04:13:49;;;;;;;32.50;21.15;;;3.30;99.90;;;;;;5050951;28;20035;-76
2020/12/10 04:16:15;;;;;;;36.65;21.83;;;3.40;99.90;;;;;;5032593;28;20055;-76
2020/12/10 04:18:42;;;;;;;33.15;21.70;;;3.40;99.90;;;;;;5050930;28;20049;-76
2020/12/10 04:21:09;;;;;;;35.33;21.25;;;3.30;99.90;;;;;;5050734;28;20029;-76
2020/12/10 04:23:35;;;;;;;35.38;22.27;;;3.10;99.90;;;;;;5050820;28;20148;-76
2020/12/10 04:26:01;;;;;;;43.22;23.40;;;3.00;99.90;;;;;;5032809;28;20396;-76
2020/12/10 04:28:27;;;;;;;37.38;23.25;;;3.10;99.90;;;;;;5032858;28;20025;-77
2020/12/10 04:30:53;;;;;;;37.25;23.95;;;3.10;99.90;;;;;;5032912;28;20174;-77
2020/12/10 04:33:19;;;;;;;39.83;23.05;;;3.20;99.90;;;;;;5032861;28;20222;-77
2020/12/10 04:35:45;;;;;;;37.15;23.73;;;3.10;99.90;;;;;;5050747;28;20087;-77
2020/12/10 04:38:11;;;;;;;34.90;22.63;;;3.00;99.90;;;;;;5050379;28;20307;-77
2020/12/10 04:40:37;;;;;;;34.45;22.10;;;2.90;99.90;;;;;;5032678;28;20025;-77
2020/12/10 04:43:05;;;;;;;38.85;24.00;;;2.90;99.90;;;;;;5032665;28;20464;-77
2020/12/10 04:45:31;;;;;;;37.03;22.65;;;3.10;99.90;;;;;;5050490;28;20373;-77
2020/12/10 04:47:59;;;;;;;35.45;22.90;;;3.00;99.90;;;;;;5050680;28;20045;-77
2020/12/10 04:50:26;;;;;;;38.03;22.38;;;3.10;99.90;;;;;;5032949;28;20013;-77
2020/12/10 04:52:53;;;;;;;38.20;23.60;;;3.20;99.90;;;;;;5032440;28;20028;-77
2020/12/10 04:55:20;;;;;;;34.55;22.13;;;3.10;99.90;;;;;;5050227;28;20028;-77
2020/12/10 04:57:45;;;;;;;37.50;22.50;;;3.00;99.90;;;;;;5032586;28;20086;-77
2020/12/10 05:00:17;;;;;;;39.75;23.88;;;2.90;99.90;;;;;;5032597;28;20025;-77
2020/12/10 05:02:45;;;;;;;41.17;24.83;;;3.00;99.90;;;;;;5032428;28;20108;-77
2020/12/10 05:05:30;;;;;;;41.60;25.23;;;3.20;99.90;;;;;;5050391;28;20374;-75
2020/12/10 05:07:57;;;;;;;38.08;22.98;;;3.20;99.90;;;;;;5032289;28;20384;-77
2020/12/10 05:10:23;;;;;;;40.00;23.42;;;3.10;99.90;;;;;;5032473;28;20484;-77
2020/12/10 05:12:49;;;;;;;37.03;23.17;;;3.30;99.90;;;;;;5032455;28;20104;-77
2020/12/10 05:15:31;;;;;;;36.22;22.58;;;3.30;99.90;;;;;;5032414;28;20473;-75
2020/12/10 05:18:04;;;;;;;41.17;25.00;;;3.30;99.90;;;;;;5048812;28;20035;-75
2020/12/10 05:20:53;;;;;;;37.25;23.05;;;3.30;99.90;;;;;;5032319;28;20370;-77
2020/12/10 05:23:29;;;;;;;37.83;22.98;;;3.30;99.90;;;;;;5032249;28;20380;-77
2020/12/10 05:25:55;;;;;;;40.10;23.73;;;3.20;99.90;;;;;;5050155;28;20031;-77
2020/12/10 05:28:23;;;;;;;38.10;23.58;;;3.20;99.90;;;;;;5051469;28;20021;-77
2020/12/10 05:31:02;;;;;;;37.85;23.55;;;3.20;99.90;;;;;;5054442;28;20029;-77
2020/12/10 05:33:28;;;;;;;39.33;24.60;;;3.30;99.90;;;;;;5053878;28;20025;-77
2020/12/10 05:36:10;;;;;;;36.60;24.17;;;3.30;99.90;;;;;;5054033;28;20032;-77
2020/12/10 05:38:58;;;;;;;38.58;25.05;;;3.30;99.90;;;;;;5054081;28;20040;-77
2020/12/10 05:41:25;;;;;;;41.78;24.90;;;3.20;99.90;;;;;;5054325;28;20445;-77
2020/12/10 05:43:51;;;;;;;42.13;23.52;;;3.00;99.90;;;;;;5053665;28;20112;-77
2020/12/10 05:46:22;;;;;;;39.67;24.42;;;2.90;99.90;;;;;;5053783;28;20035;-77
2020/12/10 05:48:50;;;;;;;38.05;23.42;;;3.00;99.90;;;;;;5053437;28;20060;-77
2020/12/10 05:51:18;;;;;;;37.15;22.73;;;3.20;99.90;;;;;;5052450;28;20031;-77
2020/12/10 05:53:44;;;;;;;39.75;24.15;;;3.10;99.90;;;;;;5053332;28;20021;-77
2020/12/10 05:56:12;;;;;;;38.92;23.35;;;3.10;99.90;;;;;;5053269;28;20104;-77
2020/12/10 05:58:55;;;;;;;42.72;24.30;;;3.10;99.90;;;;;;5052090;28;20082;-77
2020/12/10 06:01:32;;;;;;;38.38;24.38;;;3.20;99.90;;;;;;5035254;28;20100;-75
2020/12/10 06:03:59;;;;;;;40.50;25.35;;;3.30;99.90;;;;;;5053156;28;20044;-75
2020/12/10 06:06:27;;;;;;;37.33;22.70;;;3.30;99.90;;;;;;5053006;28;20024;-75
2020/12/10 06:09:00;;;;;;;38.92;24.45;;;3.10;99.90;;;;;;5034502;28;21662;-77
2020/12/10 06:11:26;;;;;;;39.67;24.90;;;3.10;99.90;;;;;;5052578;28;20083;-75
2020/12/10 06:14:02;;;;;;;41.83;24.50;;;3.20;99.90;;;;;;5035090;28;20037;-75
2020/12/10 06:16:29;;;;;;;39.85;24.02;;;3.10;99.90;;;;;;5052739;28;20074;-75
2020/12/10 06:19:03;;;;;;;45.17;26.35;;;3.10;99.90;;;;;;5067632;22;20071;-76
2020/12/10 06:21:45;;;;;;;43.97;25.80;;;3.00;99.90;;;;;;5052735;28;20025;-76
2020/12/10 06:24:25;;;;;;;43.17;20.95;;;2.80;99.90;;;;;;5052814;28;20017;-76
2020/12/10 06:26:58;;;;;;;42.58;26.45;;;2.80;99.90;;;;;;5052518;28;20557;-75
2020/12/10 06:29:31;;;;;;;43.00;25.13;;;2.90;99.90;;;;;;5052768;28;20484;-73
2020/12/10 06:32:14;;;;;;;38.65;22.92;;;3.00;99.90;;;;;;5052235;28;20384;-72
2020/12/10 06:34:43;;;;;;;41.58;25.08;;;3.00;99.90;;;;;;5052505;28;20032;-73
2020/12/10 06:37:26;;;;;;;49.63;27.80;;;2.90;99.90;;;;;;5052105;28;20032;-73
2020/12/10 06:39:57;;;;;;;49.17;26.70;;;3.10;99.90;;;;;;5033514;28;20100;-73
2020/12/10 06:42:24;;;;;;;66.03;32.35;;;2.90;99.90;;;;;;5052266;28;20705;-74
2020/12/10 06:44:50;;;;;;;48.58;28.90;;;2.90;99.90;;;;;;5052201;28;20025;-72
2020/12/10 06:47:16;;;;;;;43.58;26.45;;;3.00;99.90;;;;;;5034385;28;20025;-73
2020/12/10 06:49:42;;;;;;;46.28;27.05;;;3.20;99.90;;;;;;5034433;28;20040;-73
2020/12/10 06:52:10;;;;;;;46.55;28.00;;;3.20;99.90;;;;;;5034273;28;20032;-73
2020/12/10 06:54:56;;;;;;;43.50;25.40;;;3.20;99.90;;;;;;5052245;28;20607;-73
2020/12/10 06:57:22;;;;;;;45.03;25.80;;;3.20;99.90;;;;;;5033895;28;20029;-73
2020/12/10 06:59:47;;;;;;;44.95;26.33;;;3.30;99.90;;;;;;5034391;28;20028;-73
2020/12/10 07:02:16;;;;;;;47.00;26.98;;;3.30;99.90;;;;;;5053071;28;20029;-73
2020/12/10 07:04:50;;;;;;;44.92;26.45;;;3.20;99.90;;;;;;5054287;28;20031;-74
2020/12/10 07:07:17;;;;;;;46.60;26.98;;;3.30;99.90;;;;;;5071772;28;20135;-73
2020/12/10 07:10:01;;;;;;;47.13;27.02;;;3.00;99.90;;;;;;5071875;28;20480;-74
2020/12/10 07:12:33;;;;;;;42.05;25.45;;;3.20;99.90;;;;;;5037354;28;20028;-74
2020/12/10 07:15:24;;;;;;;43.35;24.77;;;3.20;99.90;;;;;;5068904;28;20384;-73
2020/12/10 07:17:50;;;;;;;43.05;24.70;;;3.20;99.90;;;;;;5050629;28;20468;-73
2020/12/10 07:20:17;;;;;;;39.92;24.33;;;3.10;99.90;;;;;;5072114;28;20063;-74
2020/12/10 07:22:43;;;;;;;44.10;26.77;;;3.10;99.90;;;;;;5072383;28;20038;-73
2020/12/10 07:25:09;;;;;;;43.08;25.02;;;3.30;99.90;;;;;;5037095;28;20059;-73
2020/12/10 07:27:35;;;;;;;45.75;24.98;;;3.30;99.90;;;;;;5033550;28;20032;-74
2020/12/10 07:30:00;;;;;;;43.78;25.75;;;3.30;99.90;;;;;;5051527;28;20389;-74
2020/12/10 07:32:26;;;;;;;42.20;24.48;;;3.20;99.90;;;;;;5040012;28;20490;-72
2020/12/10 07:34:52;;;;;;;49.30;28.58;;;3.30;99.90;;;;;;5071239;28;20029;-72
2020/12/10 07:37:24;;;;;;;42.78;25.02;;;3.50;99.90;;;;;;5036843;28;20024;-73
2020/12/10 07:39:50;;;;;;;45.72;26.63;;;3.40;99.90;;;;;;5053463;28;20025;-75
2020/12/10 07:42:19;;;;;;;42.67;26.08;;;3.40;99.90;;;;;;5053518;28;20024;-76
2020/12/10 07:44:45;;;;;;;44.72;26.30;;;3.40;99.90;;;;;;5053160;28;20035;-76
2020/12/10 07:47:12;;;;;;;57.50;30.15;;;3.20;99.90;;;;;;5053492;28;20020;-73
2020/12/10 07:49:39;;;;;;;52.47;29.00;;;3.30;99.90;;;;;;5055122;28;20017;-73
2020/12/10 07:52:08;;;;;;;52.65;29.00;;;3.30;99.90;;;;;;5032854;28;20544;-73
2020/12/10 07:55:02;;;;;;;51.75;28.50;;;3.40;99.90;;;;;;5036817;28;20074;-73
2020/12/10 07:57:30;;;;;;;48.10;29.25;;;3.40;99.90;;;;;;5050024;28;20020;-76
2020/12/10 08:00:08;;;;;;;49.40;28.25;;;3.60;99.90;;;;;;5039049;28;20021;-76
2020/12/10 08:02:54;;;;;;;48.55;28.52;;;3.60;99.90;;;;;;5042052;28;20027;-75
2020/12/10 08:05:20;;;;;;;49.88;28.40;;;3.40;99.90;;;;;;5033413;28;20037;-74
2020/12/10 08:07:51;;;;;;;53.47;29.40;;;3.30;99.90;;;;;;5040153;28;20530;-71
2020/12/10 08:10:20;;;;;;;51.17;31.02;;;3.20;99.90;;;;;;5017416;28;20061;-74
2020/12/10 08:13:13;;;;;;;51.92;30.30;;;3.10;99.90;;;;;;5033034;28;20086;-74
2020/12/10 08:15:44;;;;;;;53.03;28.85;;;3.20;99.90;;;;;;5018847;28;20116;-72
2020/12/10 08:18:13;;;;;;;57.53;32.05;;;3.10;99.90;;;;;;5019756;28;20032;-73
2020/12/10 08:20:45;;;;;;;56.17;31.38;;;3.00;99.90;;;;;;5050010;28;20024;-73
2020/12/10 08:23:15;;;;;;;52.03;29.63;;;3.00;99.90;;;;;;5017321;28;20369;-72
2020/12/10 08:25:43;;;;;;;55.03;30.60;;;3.00;99.90;;;;;;5050116;28;20100;-73
2020/12/10 08:28:10;;;;;;;60.13;33.75;;;3.00;99.90;;;;;;5042389;28;21302;-73
2020/12/10 08:30:36;;;;;;;55.15;31.20;;;3.00;99.90;;;;;;5043643;28;20016;-72
2020/12/10 08:33:03;;;;;;;51.58;30.13;;;3.10;99.90;;;;;;5026748;28;20589;-76
2020/12/10 08:35:40;;;;;;;57.83;32.17;;;3.00;99.90;;;;;;5049143;28;20017;-74
2020/12/10 08:38:06;;;;;;;54.25;32.67;;;3.10;99.90;;;;;;5049597;28;20063;-73
2020/12/10 08:40:32;;;;;;;55.80;31.55;;;3.20;99.90;;;;;;5026603;28;20024;-73
2020/12/10 08:43:11;;;;;;;60.15;33.47;;;3.30;99.90;;;;;;5022455;28;20029;-74
2020/12/10 08:45:44;;;;;;;58.03;32.60;;;3.20;99.90;;;;;;5044946;28;20439;-73
2020/12/10 08:48:15;;;;;;;60.65;33.45;;;3.10;99.90;;;;;;5049736;28;20032;-74
2020/12/10 08:50:52;;;;;;;61.28;32.13;;;3.00;99.90;;;;;;5049236;28;20479;-75
2020/12/10 08:53:18;;;;;;;58.60;34.05;;;3.10;99.90;;;;;;5043538;28;20029;-74
2020/12/10 08:55:49;;;;;;;59.92;30.92;;;3.10;99.90;;;;;;5049400;28;20079;-74
2020/12/10 08:58:23;;;;;;;60.38;32.78;;;3.10;99.90;;;;;;5049797;28;20021;-74
2020/12/10 09:00:49;;;;;;;60.20;32.58;;;3.00;99.90;;;;;;5027535;28;20558;-75
2020/12/10 09:03:15;;;;;;;63.00;33.85;;;2.90;99.90;;;;;;5044405;28;20024;-74
2020/12/10 09:05:41;;;;;;;57.78;31.70;;;2.90;99.90;;;;;;5053107;28;20021;-74
2020/12/10 09:08:08;;;;;;;57.40;31.05;;;2.90;99.90;;;;;;5053279;28;20029;-74
2020/12/10 09:10:34;;;;;;;58.90;32.30;;;3.00;99.90;;;;;;5053391;28;20035;-74
2020/12/10 09:13:00;;;;;;;62.83;33.75;;;3.10;99.90;;;;;;5044946;28;20028;-74
2020/12/10 09:15:28;;;;;;;63.72;32.90;;;3.10;99.90;;;;;;5039966;28;20506;-75
2020/12/10 09:17:54;;;;;;;66.80;34.03;;;3.10;99.90;;;;;;5040442;28;20060;-74
2020/12/10 09:20:20;;;;;;;59.97;31.38;;;3.10;99.90;;;;;;5051360;28;20021;-74
2020/12/10 09:22:46;;;;;;;59.83;32.58;;;3.10;99.90;;;;;;5041811;28;20123;-74
2020/12/10 09:25:12;;;;;;;56.38;31.15;;;3.10;99.90;;;;;;5052428;28;20121;-74
2020/12/10 09:27:38;;;;;;;61.55;32.55;;;3.20;99.90;;;;;;5038980;28;20025;-74
2020/12/10 09:30:06;;;;;;;56.20;31.98;;;3.30;99.90;;;;;;5037101;28;20029;-74
2020/12/10 09:32:34;;;;;;;57.55;32.38;;;3.30;99.90;;;;;;5045510;28;20025;-74
2020/12/10 09:35:07;;;;;;;59.65;30.98;;;3.50;99.90;;;;;;5035042;28;20029;-74
2020/12/10 09:37:40;;;;;;;57.33;31.35;;;3.40;99.90;;;;;;5052420;28;20150;-74
2020/12/10 09:40:09;;;;;;;61.08;33.65;;;3.40;99.90;;;;;;5037426;28;20017;-74
2020/12/10 09:42:43;;;;;;;64.18;32.55;;;3.40;99.90;;;;;;5048159;28;20024;-74
2020/12/10 09:45:09;;;;;;;57.30;32.05;;;3.50;99.90;;;;;;5039067;28;20408;-74
2020/12/10 09:47:35;;;;;;;53.20;29.90;;;3.50;99.90;;;;;;5039393;28;20032;-74
2020/12/10 09:50:02;;;;;;;53.30;32.13;;;3.50;99.90;;;;;;5052163;28;20468;-74
2020/12/10 09:52:28;;;;;;;54.65;31.40;;;3.60;99.90;;;;;;5052582;28;20139;-74
2020/12/10 09:57:29;;;;;;;61.60;33.08;;;3.60;99.90;;;;;;5051782;28;20033;-75
2020/12/10 10:00:00;;;;;;;60.80;33.22;;;3.50;99.90;;;;;;5051926;28;20079;-74
2020/12/10 10:02:26;;;;;;;63.97;33.25;;;3.50;99.90;;;;;;5051487;28;20021;-75
2020/12/10 10:04:52;;;;;;;61.95;33.75;;;3.40;99.90;;;;;;5052046;28;20088;-74
2020/12/10 10:07:18;;;;;;;59.13;33.00;;;3.50;99.90;;;;;;5040216;28;20069;-74
2020/12/10 10:09:44;;;;;;;74.53;35.22;;;3.60;99.90;;;;;;5052005;28;20016;-75
2020/12/10 10:12:11;;;;;;;59.38;33.35;;;3.50;99.90;;;;;;5051622;28;20028;-74
2020/12/10 10:14:37;;;;;;;63.83;35.83;;;3.40;99.90;;;;;;5050904;28;20024;-75
2020/12/10 10:17:06;;;;;;;66.10;35.10;;;3.40;99.90;;;;;;5047599;28;20120;-74
2020/12/10 10:19:33;;;;;;;60.42;32.63;;;3.50;99.90;;;;;;5051558;28;20041;-74
2020/12/10 10:21:59;;;;;;;65.88;34.10;;;3.50;99.90;;;;;;5052099;28;20429;-74
2020/12/10 10:24:25;;;;;;;63.03;33.50;;;3.40;99.90;;;;;;5051091;28;20064;-75
2020/12/10 10:26:51;;;;;;;59.90;31.88;;;3.40;99.90;;;;;;5035493;28;20025;-74
2020/12/10 10:29:21;;;;;;;50.15;28.73;;;3.20;99.90;;;;;;5017475;28;20400;-75
2020/12/10 10:31:51;;;;;;;53.72;29.63;;;3.10;99.90;;;;;;5038858;28;20029;-74
2020/12/10 10:34:18;;;;;;;54.92;30.90;;;3.10;99.90;;;;;;5051361;28;20286;-74
2020/12/10 10:36:44;;;;;;;51.83;30.52;;;3.30;99.90;;;;;;5051467;28;20144;-74
2020/12/10 10:39:11;;;;;;;56.42;31.55;;;3.40;99.90;;;;;;5051572;28;20014;-75
2020/12/10 10:41:45;;;;;;;54.60;32.47;;;3.60;99.90;;;;;;5051133;28;20074;-74
2020/12/10 10:44:11;;;;;;;53.65;31.77;;;3.50;99.90;;;;;;5038789;28;20052;-74
2020/12/10 10:46:37;;;;;;;63.22;35.05;;;3.30;99.90;;;;;;5042863;28;20025;-74
2020/12/10 10:49:04;;;;;;;59.00;33.28;;;3.20;99.90;;;;;;5043686;28;20025;-74
2020/12/10 10:51:30;;;;;;;56.28;32.42;;;3.30;99.90;;;;;;5037896;28;20029;-74
2020/12/10 10:53:56;;;;;;;57.28;32.72;;;3.30;99.90;;;;;;5033451;28;20044;-74
2020/12/10 10:56:25;;;;;;;61.80;32.97;;;3.30;99.90;;;;;;5049088;28;20032;-74
2020/12/10 10:58:52;;;;;;;64.30;34.78;;;3.40;99.90;;;;;;5050791;28;20025;-74
2020/12/10 11:01:25;;;;;;;64.57;33.95;;;3.40;99.90;;;;;;5044011;28;20171;-74
2020/12/10 11:03:51;;;;;;;61.80;33.67;;;3.40;99.90;;;;;;5050861;28;20024;-74
2020/12/10 11:06:16;;;;;;;63.13;34.17;;;3.30;99.90;;;;;;5029313;28;20025;-74
2020/12/10 11:08:42;;;;;;;54.53;31.63;;;3.20;99.90;;;;;;5039789;28;20100;-75
2020/12/10 11:11:08;;;;;;;65.80;35.08;;;3.10;99.90;;;;;;5051333;28;20115;-74
2020/12/10 11:13:34;;;;;;;56.50;33.03;;;3.10;99.90;;;;;;5051136;28;20032;-74
2020/12/10 11:16:00;;;;;;;58.78;32.03;;;3.20;99.90;;;;;;5050696;28;20029;-74
2020/12/10 11:18:26;;;;;;;54.40;30.00;;;3.20;99.90;;;;;;5051301;28;20423;-74
2020/12/10 11:20:52;;;;;;;55.65;32.25;;;3.20;99.90;;;;;;5043517;28;20370;-74
2020/12/10 11:23:19;;;;;;;57.80;31.83;;;3.20;99.90;;;;;;5039971;28;20044;-74
2020/12/10 11:25:45;;;;;;;56.72;31.70;;;3.10;99.90;;;;;;5043545;28;20021;-74
2020/12/10 11:28:11;;;;;;;59.72;33.33;;;3.00;99.90;;;;;;5050584;28;20519;-74
2020/12/10 11:30:37;;;;;;;56.80;32.08;;;3.00;99.90;;;;;;5043752;28;20048;-74
2020/12/10 11:33:03;;;;;;;57.28;33.05;;;3.00;99.90;;;;;;5050345;28;20021;-74
2020/12/10 11:35:29;;;;;;;55.30;32.65;;;3.10;99.90;;;;;;5050109;28;20053;-76
2020/12/10 11:37:55;;;;;;;50.13;30.10;;;3.10;99.90;;;;;;5049209;28;20040;-74
2020/12/10 11:40:24;;;;;;;51.78;29.40;;;3.10;99.90;;;;;;5048776;28;20658;-75
2020/12/10 11:42:50;;;;;;;51.53;29.80;;;3.20;99.90;;;;;;5050044;28;20060;-75
2020/12/10 11:45:17;;;;;;;55.03;31.27;;;3.30;99.90;;;;;;5045499;28;20103;-75
2020/12/10 11:47:43;;;;;;;53.83;31.23;;;3.30;99.90;;;;;;5043270;28;20063;-75
2020/12/10 11:50:18;;;;;;;54.30;30.67;;;3.40;99.90;;;;;;5049007;28;20064;-74
2020/12/10 11:52:49;;;;;;;51.53;30.42;;;3.30;99.90;;;;;;5037922;28;20024;-74
2020/12/10 11:55:15;;;;;;;53.22;33.38;;;3.30;99.90;;;;;;5046463;28;20088;-74
2020/12/10 11:57:42;;;;;;;46.97;28.42;;;3.30;99.90;;;;;;5043979;28;20032;-75
2020/12/10 12:00:09;;;;;;;48.55;27.95;;;3.30;99.90;;;;;;5049678;28;20029;-74
2020/12/10 12:02:35;;;;;;;55.55;31.17;;;3.50;99.90;;;;;;5049855;28;20025;-74
2020/12/10 12:05:02;;;;;;;44.00;27.40;;;3.50;99.90;;;;;;5049443;28;20560;-74
2020/12/10 12:07:28;;;;;;;46.10;26.65;;;3.60;99.90;;;;;;5044306;28;20116;-75
2020/12/10 12:09:54;;;;;;;66.70;32.90;;;3.50;99.90;;;;;;5049878;28;20108;-75
2020/12/10 12:12:20;;;;;;;46.90;27.20;;;3.40;99.90;;;;;;5049357;28;20548;-75
2020/12/10 12:14:45;;;;;;;55.33;30.55;;;3.30;99.90;;;;;;5049712;28;20100;-74
2020/12/10 12:17:11;;;;;;;53.28;30.13;;;3.00;99.90;;;;;;5049204;28;20024;-75
2020/12/10 12:19:37;;;;;;;47.45;27.75;;;3.10;99.90;;;;;;5048345;28;20029;-74
2020/12/10 12:22:03;;;;;;;50.50;30.20;;;3.20;99.90;;;;;;5036247;28;20029;-75
2020/12/10 12:24:29;;;;;;;50.00;28.15;;;3.30;99.90;;;;;;5047007;28;20562;-75
2020/12/10 12:26:54;;;;;;;50.65;28.17;;;3.50;99.90;;;;;;5036956;28;20025;-74
2020/12/10 12:29:20;;;;;;;46.30;26.45;;;3.50;99.90;;;;;;5049091;28;20465;-74
2020/12/10 12:31:46;;;;;;;49.85;29.25;;;3.50;99.90;;;;;;5050246;28;20036;-74
2020/12/10 12:34:12;;;;;;;50.40;28.33;;;3.50;99.90;;;;;;5045239;28;20029;-75
2020/12/10 12:36:38;;;;;;;59.78;31.23;;;3.40;99.90;;;;;;5043286;28;20079;-74
2020/12/10 12:39:05;;;;;;;53.75;29.27;;;3.40;99.90;;;;;;5052080;28;20477;-74
2020/12/10 12:41:32;;;;;;;48.63;26.95;;;3.40;99.90;;;;;;5053741;28;20025;-74
2020/12/10 12:43:58;;;;;;;47.30;27.40;;;3.40;99.90;;;;;;5053552;28;20366;-75